createdAt,value
2023-04-20T00:01:42.880Z,3.00
2023-04-20T00:04:13.637Z,3.00
2023-04-20T00:06:42.324Z,2.90
2023-04-20T00:09:13.900Z,2.90
2023-04-20T00:11:45.683Z,2.80
2023-04-20T00:14:19.112Z,2.80
2023-04-20T00:16:48.091Z,2.80
2023-04-20T00:19:18.245Z,2.80
2023-04-20T00:21:47.524Z,2.80
2023-04-20T00:24:16.420Z,2.80
2023-04-20T00:26:46.052Z,2.70
2023-04-20T00:29:16.667Z,2.70
2023-04-20T00:31:45.644Z,2.70
2023-04-20T00:34:21.448Z,2.60
2023-04-20T00:36:52.299Z,2.60
2023-04-20T00:39:27.086Z,2.60
2023-04-20T00:42:05.717Z,2.60
2023-04-20T00:44:37.528Z,2.50
2023-04-20T00:47:21.424Z,2.60
2023-04-20T00:49:54.217Z,2.50
2023-04-20T00:52:23.544Z,2.50
2023-04-20T00:54:53.423Z,2.50
2023-04-20T00:57:36.631Z,2.40
2023-04-20T01:00:07.764Z,2.30
2023-04-20T01:02:39.672Z,2.30
2023-04-20T01:05:12.812Z,2.30
2023-04-20T01:07:42.520Z,2.30
2023-04-20T01:10:13.320Z,2.30
2023-04-20T01:12:43.257Z,2.30
2023-04-20T01:15:15.904Z,2.30
2023-04-20T01:17:46.822Z,2.30
2023-04-20T01:20:24.253Z,2.30
2023-04-20T01:22:58.860Z,2.20
2023-04-20T01:25:31.009Z,2.20
2023-04-20T01:28:00.726Z,2.10
2023-04-20T01:30:32.823Z,2.10
2023-04-20T01:33:01.780Z,2.00
2023-04-20T01:35:31.862Z,2.00
2023-04-20T01:38:02.612Z,2.00
2023-04-20T01:40:34.681Z,2.00
2023-04-20T01:43:06.204Z,2.00
2023-04-20T01:45:35.570Z,1.90
2023-04-20T01:48:05.282Z,1.90
2023-04-20T01:50:36.356Z,1.80
2023-04-20T01:53:06.840Z,1.80
2023-04-20T01:55:36.773Z,1.80
2023-04-20T01:58:08.929Z,1.70
2023-04-20T02:00:42.197Z,1.70
2023-04-20T02:03:12.731Z,1.70
2023-04-20T02:05:44.068Z,1.60
2023-04-20T02:08:15.587Z,1.60
2023-04-20T02:10:45.762Z,1.50
2023-04-20T02:13:15.313Z,1.50
2023-04-20T02:15:44.445Z,1.60
2023-04-20T02:18:16.413Z,1.50
2023-04-20T02:20:48.326Z,1.50
2023-04-20T02:23:18.468Z,1.50
2023-04-20T02:25:48.250Z,1.50
2023-04-20T02:28:18.242Z,1.50
2023-04-20T02:30:49.721Z,1.50
2023-04-20T02:33:21.311Z,1.50
2023-04-20T02:35:51.152Z,1.50
2023-04-20T02:38:20.755Z,1.40
2023-04-20T02:40:49.850Z,1.40
2023-04-20T02:43:19.592Z,1.30
2023-04-20T02:45:51.822Z,1.30
2023-04-20T02:48:23.766Z,1.40
2023-04-20T02:50:53.706Z,1.30
2023-04-20T02:53:25.918Z,1.40
2023-04-20T02:56:11.503Z,1.40
2023-04-20T02:58:52.431Z,1.40
2023-04-20T03:01:42.485Z,1.40
2023-04-20T03:04:32.300Z,1.30
2023-04-20T03:07:25.355Z,1.30
2023-04-20T03:09:57.725Z,1.30
2023-04-20T03:12:49.793Z,1.30
2023-04-20T03:15:34.195Z,1.30
2023-04-20T03:18:12.228Z,1.20
2023-04-20T03:20:42.334Z,1.20
2023-04-20T03:23:11.628Z,1.10
2023-04-20T03:25:42.655Z,1.10
2023-04-20T03:28:20.076Z,1.10
2023-04-20T03:30:57.513Z,1.00
2023-04-20T03:33:33.677Z,1.00
2023-04-20T03:36:11.637Z,0.90
2023-04-20T03:38:47.385Z,0.90
2023-04-20T03:41:29.139Z,0.90
2023-04-20T03:43:59.094Z,0.90
2023-04-20T03:46:28.836Z,0.90
2023-04-20T03:48:57.934Z,1.00
2023-04-20T03:51:28.726Z,1.00
2023-04-20T03:53:57.836Z,1.00
2023-04-20T03:56:30.712Z,0.90
2023-04-20T03:59:02.814Z,0.90
2023-04-20T04:01:33.672Z,1.00
2023-04-20T04:04:04.457Z,1.00
2023-04-20T04:06:36.378Z,1.00
2023-04-20T04:09:06.197Z,1.00
2023-04-20T04:11:37.392Z,1.00
2023-04-20T04:14:08.199Z,0.90
2023-04-20T04:16:43.995Z,0.90
2023-04-20T04:19:14.861Z,0.90
2023-04-20T04:21:44.406Z,1.00
2023-04-20T04:24:14.598Z,1.00
2023-04-20T04:27:12.218Z,1.00
2023-04-20T04:29:48.768Z,1.10
2023-04-20T04:32:20.928Z,1.10
2023-04-20T04:34:50.673Z,1.20
2023-04-20T04:37:20.208Z,1.20
2023-04-20T04:40:03.781Z,1.20
2023-04-20T04:42:38.894Z,1.30
2023-04-20T04:45:11.711Z,1.30
2023-04-20T04:47:44.317Z,1.40
2023-04-20T04:50:14.783Z,1.40
2023-04-20T04:52:44.815Z,1.50
2023-04-20T04:55:16.347Z,1.50
2023-04-20T04:57:46.923Z,1.60
2023-04-20T05:00:17.732Z,1.70
2023-04-20T05:02:46.865Z,1.70
2023-04-20T05:05:16.677Z,1.80
2023-04-20T05:07:48.173Z,1.90
2023-04-20T05:10:17.093Z,2.00
2023-04-20T05:12:49.494Z,2.00
2023-04-20T05:15:18.368Z,2.10
2023-04-20T05:17:50.014Z,2.20
2023-04-20T05:20:22.849Z,2.40
2023-04-20T05:22:52.011Z,2.50
2023-04-20T05:25:22.180Z,2.70
2023-04-20T05:27:53.040Z,2.90
2023-04-20T05:30:22.844Z,3.00
2023-04-20T05:32:52.798Z,3.10
2023-04-20T05:35:22.761Z,3.30
2023-04-20T05:37:51.960Z,3.40
2023-04-20T05:40:23.820Z,3.50
2023-04-20T05:42:54.958Z,3.60
2023-04-20T05:45:24.365Z,3.70
2023-04-20T05:47:57.577Z,3.90
2023-04-20T05:50:31.162Z,4.10
2023-04-20T05:53:01.187Z,4.30
2023-04-20T05:55:29.961Z,4.40
2023-04-20T05:58:00.308Z,4.50
2023-04-20T06:00:29.368Z,4.50
2023-04-20T06:02:58.667Z,4.60
2023-04-20T06:05:27.802Z,4.70
2023-04-20T06:07:57.006Z,4.90
2023-04-20T06:10:26.463Z,5.10
2023-04-20T06:13:00.745Z,5.30
2023-04-20T06:15:29.310Z,5.50
2023-04-20T06:18:02.017Z,5.60
2023-04-20T06:20:33.474Z,5.80
2023-04-20T06:23:06.146Z,5.90
2023-04-20T06:25:35.201Z,6.00
2023-04-20T06:28:07.352Z,6.20
2023-04-20T06:30:36.751Z,6.40
2023-04-20T06:33:06.840Z,6.50
2023-04-20T06:35:38.706Z,6.70
2023-04-20T06:38:09.442Z,6.90
2023-04-20T06:40:38.566Z,7.00
2023-04-20T06:43:11.219Z,7.00
2023-04-20T06:45:40.225Z,7.10
2023-04-20T06:48:20.209Z,7.30
2023-04-20T06:51:02.022Z,7.60
2023-04-20T06:53:33.586Z,7.90
2023-04-20T06:56:03.435Z,8.20
2023-04-20T06:58:34.279Z,8.40
2023-04-20T07:01:04.575Z,8.70
2023-04-20T07:03:35.649Z,8.90
2023-04-20T07:06:07.619Z,9.20
2023-04-20T07:08:37.395Z,9.40
2023-04-20T07:11:07.919Z,9.60
2023-04-20T07:13:43.247Z,9.80
2023-04-20T07:16:12.204Z,10.00
2023-04-20T07:18:41.991Z,10.10
2023-04-20T07:21:11.322Z,10.00
2023-04-20T07:23:44.067Z,10.00
2023-04-20T07:26:15.301Z,9.90
2023-04-20T07:28:46.480Z,10.10
2023-04-20T07:31:15.316Z,10.20
2023-04-20T07:33:47.306Z,10.30
2023-04-20T07:36:16.917Z,10.90
2023-04-20T07:38:49.050Z,11.40
2023-04-20T07:41:20.791Z,11.80
2023-04-20T07:43:53.156Z,11.80
2023-04-20T07:46:22.591Z,12.00
2023-04-20T07:48:52.152Z,12.00
2023-04-20T07:51:21.025Z,12.50
2023-04-20T07:53:49.602Z,12.80
2023-04-20T07:56:18.828Z,13.20
2023-04-20T07:58:47.770Z,12.90
2023-04-20T08:01:19.476Z,12.70
2023-04-20T08:03:49.326Z,12.50
2023-04-20T08:06:18.160Z,12.20
2023-04-20T08:08:47.020Z,12.10
2023-04-20T08:11:16.331Z,11.80
2023-04-20T08:13:46.342Z,11.60
2023-04-20T08:16:15.443Z,11.40
2023-04-20T08:18:47.964Z,11.20
2023-04-20T08:21:17.546Z,11.00
2023-04-20T08:23:47.517Z,10.70
2023-04-20T08:26:17.622Z,10.50
2023-04-20T08:28:47.593Z,10.30
2023-04-20T08:31:17.207Z,10.20
2023-04-20T08:33:48.175Z,10.10
2023-04-20T08:36:16.830Z,9.90
2023-04-20T08:38:48.331Z,9.90
2023-04-20T08:41:17.900Z,9.90
2023-04-20T08:43:49.028Z,9.70
2023-04-20T08:46:19.364Z,9.60
2023-04-20T08:48:52.041Z,9.50
2023-04-20T08:51:21.062Z,9.60
2023-04-20T08:53:50.023Z,9.50
2023-04-20T08:56:18.579Z,9.50
2023-04-20T08:58:47.922Z,9.40
2023-04-20T09:01:22.706Z,9.40
2023-04-20T09:04:02.742Z,9.50
2023-04-20T09:06:33.595Z,9.60
2023-04-20T09:09:04.335Z,9.60
2023-04-20T09:11:35.566Z,9.70
2023-04-20T09:14:10.318Z,9.60
2023-04-20T09:16:39.602Z,9.80
2023-04-20T09:19:13.964Z,9.80
2023-04-20T09:21:52.401Z,9.90
2023-04-20T09:24:25.033Z,9.90
2023-04-20T09:26:54.183Z,9.90
2023-04-20T09:29:25.708Z,9.90
2023-04-20T09:31:56.583Z,9.90
2023-04-20T09:34:30.896Z,9.90
2023-04-20T09:36:59.938Z,9.80
2023-04-20T09:39:30.543Z,9.90
2023-04-20T09:42:06.730Z,9.90
2023-04-20T09:44:35.927Z,9.90
2023-04-20T09:47:08.340Z,10.00
2023-04-20T09:49:48.422Z,10.00
2023-04-20T09:52:21.136Z,10.10
2023-04-20T09:54:51.053Z,10.10
2023-04-20T09:57:23.254Z,10.10
2023-04-20T09:59:57.471Z,10.10
2023-04-20T10:02:29.503Z,10.20
2023-04-20T10:05:01.880Z,10.20
2023-04-20T10:07:35.458Z,10.20
2023-04-20T10:10:09.271Z,10.20
2023-04-20T10:12:59.261Z,10.10
2023-04-20T10:15:38.990Z,10.00
2023-04-20T10:18:21.290Z,9.90
2023-04-20T10:21:08.051Z,9.80
2023-04-20T10:23:50.277Z,9.90
2023-04-20T10:26:20.692Z,9.70
2023-04-20T10:28:51.755Z,9.60
2023-04-20T10:31:22.572Z,9.60
2023-04-20T10:33:56.294Z,9.60
2023-04-20T10:36:32.821Z,9.60
2023-04-20T10:39:14.727Z,9.50
2023-04-20T10:41:56.065Z,9.60
2023-04-20T10:44:24.866Z,9.50
2023-04-20T10:46:58.160Z,9.60
2023-04-20T10:49:31.935Z,9.60
2023-04-20T10:52:06.499Z,9.70
2023-04-20T10:54:42.019Z,9.80
2023-04-20T10:57:18.485Z,9.90
2023-04-20T10:59:47.620Z,9.90
2023-04-20T11:02:15.910Z,10.00
2023-04-20T11:04:44.358Z,10.10
2023-04-20T11:07:15.061Z,10.20
2023-04-20T11:09:44.039Z,10.20
2023-04-20T11:12:15.281Z,10.30
2023-04-20T11:14:54.559Z,10.50
2023-04-20T11:17:35.006Z,10.60
2023-04-20T11:20:11.242Z,10.80
2023-04-20T11:22:43.108Z,10.90
2023-04-20T11:25:14.028Z,11.20
2023-04-20T11:27:46.386Z,11.30
2023-04-20T11:30:17.298Z,11.40
2023-04-20T11:32:56.487Z,11.40
2023-04-20T11:35:26.274Z,12.00
2023-04-20T11:37:57.618Z,12.30
2023-04-20T11:40:28.414Z,12.70
2023-04-20T11:42:58.451Z,13.00
2023-04-20T11:45:28.516Z,13.10
2023-04-20T11:47:58.092Z,13.10
2023-04-20T11:50:30.103Z,13.10
2023-04-20T11:53:01.674Z,13.00
2023-04-20T11:55:30.901Z,12.90
2023-04-20T11:57:59.894Z,13.40
2023-04-20T12:00:29.557Z,12.80
2023-04-20T12:03:00.258Z,12.70
2023-04-20T12:05:33.570Z,12.40
2023-04-20T12:08:03.434Z,12.10
2023-04-20T12:10:31.929Z,11.90
2023-04-20T12:13:04.687Z,11.70
2023-04-20T12:15:41.373Z,11.50
2023-04-20T12:18:10.891Z,11.30
2023-04-20T12:20:43.884Z,11.20
2023-04-20T12:23:13.758Z,11.10
2023-04-20T12:25:43.565Z,10.90
2023-04-20T12:28:13.273Z,10.80
2023-04-20T12:30:43.662Z,10.70
2023-04-20T12:33:13.743Z,10.70
2023-04-20T12:35:47.135Z,10.80
2023-04-20T12:38:17.331Z,10.80
2023-04-20T12:40:47.531Z,10.70
2023-04-20T12:43:17.228Z,10.70
2023-04-20T12:45:49.000Z,10.60
2023-04-20T12:48:21.086Z,10.60
2023-04-20T12:50:50.881Z,10.50
2023-04-20T12:53:20.908Z,10.30
2023-04-20T12:56:00.320Z,10.30
2023-04-20T12:58:31.734Z,10.30
2023-04-20T13:01:00.797Z,10.40
2023-04-20T13:03:31.727Z,10.40
2023-04-20T13:06:03.584Z,10.30
2023-04-20T13:08:33.597Z,10.40
2023-04-20T13:11:02.648Z,10.40
2023-04-20T13:13:33.935Z,10.30
2023-04-20T13:16:03.301Z,10.30
2023-04-20T13:18:33.079Z,10.30
2023-04-20T13:21:02.172Z,10.40
2023-04-20T13:23:32.395Z,10.40
2023-04-20T13:26:01.885Z,10.40
2023-04-20T13:28:31.098Z,10.40
2023-04-20T13:30:59.660Z,10.40
2023-04-20T13:33:28.666Z,10.30
2023-04-20T13:36:06.619Z,10.30
2023-04-20T13:38:38.325Z,10.30
2023-04-20T13:41:10.974Z,10.30
2023-04-20T13:43:40.216Z,10.20
2023-04-20T13:46:08.861Z,10.20
2023-04-20T13:48:37.156Z,10.10
2023-04-20T13:51:06.724Z,10.00
2023-04-20T13:53:37.691Z,10.00
2023-04-20T13:56:10.702Z,9.90
2023-04-20T13:58:42.755Z,9.90
2023-04-20T14:01:22.662Z,9.90
2023-04-20T14:03:52.317Z,9.90
2023-04-20T14:06:22.099Z,9.90
2023-04-20T14:08:53.074Z,9.80
2023-04-20T14:11:21.501Z,9.90
2023-04-20T14:13:50.397Z,9.90
2023-04-20T14:16:22.823Z,9.90
2023-04-20T14:18:53.141Z,10.00
2023-04-20T14:21:23.038Z,9.90
2023-04-20T14:23:55.620Z,9.90
2023-04-20T14:26:24.768Z,9.90
2023-04-20T14:28:58.400Z,9.70
2023-04-20T14:31:27.371Z,9.60
2023-04-20T14:33:58.656Z,9.60
2023-04-20T14:36:27.663Z,9.60
2023-04-20T14:38:59.565Z,9.60
2023-04-20T14:41:28.618Z,9.60
2023-04-20T14:43:59.088Z,9.70
2023-04-20T14:46:28.278Z,9.70
2023-04-20T14:48:57.177Z,9.60
2023-04-20T14:51:27.504Z,9.60
2023-04-20T14:54:00.108Z,9.60
2023-04-20T14:56:29.143Z,9.60
2023-04-20T14:58:59.957Z,9.60
2023-04-20T15:01:29.358Z,9.60
2023-04-20T15:03:58.468Z,9.50
2023-04-20T15:06:28.639Z,9.50
2023-04-20T15:08:59.502Z,9.40
2023-04-20T15:11:29.008Z,9.40
2023-04-20T15:13:57.737Z,9.40
2023-04-20T15:16:26.453Z,9.30
2023-04-20T15:18:54.814Z,9.30
2023-04-20T15:21:25.613Z,9.30
2023-04-20T15:23:55.509Z,9.30
2023-04-20T15:26:27.261Z,9.10
2023-04-20T15:28:58.253Z,9.20
2023-04-20T15:31:27.937Z,9.10
2023-04-20T15:33:59.249Z,9.10
2023-04-20T15:36:30.111Z,9.10
2023-04-20T15:38:59.749Z,9.10
2023-04-20T15:41:33.462Z,9.10
2023-04-20T15:44:05.683Z,9.10
2023-04-20T15:46:35.544Z,9.10
2023-04-20T15:49:04.440Z,9.10
2023-04-20T15:51:34.164Z,9.10
2023-04-20T15:54:05.806Z,9.10
2023-04-20T15:56:36.685Z,9.10
2023-04-20T15:59:07.268Z,9.10
2023-04-20T16:01:38.803Z,9.10
2023-04-20T16:04:08.524Z,9.10
2023-04-20T16:06:38.514Z,9.10
2023-04-20T16:09:07.616Z,9.10
2023-04-20T16:11:37.874Z,9.00
2023-04-20T16:14:07.168Z,9.00
2023-04-20T16:16:36.361Z,9.00
2023-04-20T16:19:06.227Z,9.00
2023-04-20T16:21:35.115Z,8.90
2023-04-20T16:24:05.910Z,8.80
2023-04-20T16:26:34.942Z,8.80
2023-04-20T16:29:07.775Z,8.80
2023-04-20T16:31:37.549Z,8.80
2023-04-20T16:34:06.803Z,8.70
2023-04-20T16:36:37.310Z,8.60
2023-04-20T16:39:07.842Z,8.60
2023-04-20T16:41:37.461Z,8.50
2023-04-20T16:44:15.918Z,8.50
2023-04-20T16:46:45.438Z,8.50
2023-04-20T16:49:18.281Z,8.40
2023-04-20T16:51:50.041Z,8.50
2023-04-20T16:54:18.785Z,8.40
2023-04-20T16:56:50.196Z,8.40
2023-04-20T16:59:20.794Z,8.30
2023-04-20T17:01:52.815Z,8.30
2023-04-20T17:04:23.547Z,8.30
2023-04-20T17:06:54.667Z,8.20
2023-04-20T17:09:27.407Z,8.20
2023-04-20T17:11:57.559Z,8.20
2023-04-20T17:14:28.907Z,8.10
2023-04-20T17:16:58.969Z,8.10
2023-04-20T17:19:28.291Z,8.10
2023-04-20T17:21:57.502Z,8.10
2023-04-20T17:24:29.584Z,8.10
2023-04-20T17:26:58.332Z,8.10
2023-04-20T17:29:34.880Z,8.10
2023-04-20T17:32:04.445Z,8.10
2023-04-20T17:34:41.348Z,8.10
2023-04-20T17:37:11.930Z,8.10
2023-04-20T17:39:41.375Z,8.10
2023-04-20T17:42:11.873Z,8.10
2023-04-20T17:44:42.042Z,8.00
2023-04-20T17:47:15.322Z,8.00
2023-04-20T17:49:44.158Z,8.00
2023-04-20T17:52:18.172Z,7.90
2023-04-20T17:54:48.271Z,7.90
2023-04-20T17:57:18.060Z,8.00
2023-04-20T17:59:54.399Z,8.10
2023-04-20T18:02:26.318Z,8.10
2023-04-20T18:04:59.751Z,8.10
2023-04-20T18:07:29.504Z,8.10
2023-04-20T18:09:58.918Z,8.10
2023-04-20T18:12:30.928Z,8.10
2023-04-20T18:15:01.460Z,8.10
2023-04-20T18:17:30.454Z,8.10
2023-04-20T18:20:04.084Z,8.20
2023-04-20T18:22:34.912Z,8.20
2023-04-20T18:25:04.155Z,8.20
2023-04-20T18:27:35.014Z,8.30
2023-04-20T18:30:11.368Z,8.30
2023-04-20T18:32:40.617Z,8.30
2023-04-20T18:35:11.155Z,8.20
2023-04-20T18:37:42.380Z,8.20
2023-04-20T18:40:15.500Z,8.20
2023-04-20T18:42:45.202Z,8.20
2023-04-20T18:45:18.816Z,8.00
2023-04-20T18:47:47.669Z,7.90
2023-04-20T18:50:18.946Z,7.90
2023-04-20T18:52:49.187Z,7.80
2023-04-20T18:55:17.979Z,7.90
2023-04-20T18:57:46.934Z,7.80
2023-04-20T19:00:18.383Z,7.90
2023-04-20T19:02:48.650Z,7.90
2023-04-20T19:05:20.274Z,7.90
2023-04-20T19:07:52.697Z,8.00
2023-04-20T19:10:21.466Z,8.00
2023-04-20T19:12:54.581Z,8.00
2023-04-20T19:15:28.035Z,8.00
2023-04-20T19:17:57.575Z,8.10
2023-04-20T19:20:28.047Z,8.10
2023-04-20T19:23:03.706Z,8.10
2023-04-20T19:25:33.308Z,8.10
2023-04-20T19:28:05.280Z,8.10
2023-04-20T19:30:42.039Z,8.10
2023-04-20T19:33:10.446Z,8.10
2023-04-20T19:35:41.178Z,8.00
2023-04-20T19:38:12.749Z,8.00
2023-04-20T19:40:42.157Z,7.90
2023-04-20T19:43:16.997Z,7.80
2023-04-20T19:45:51.532Z,7.80
2023-04-20T19:48:21.978Z,7.70
2023-04-20T19:50:53.834Z,7.80
2023-04-20T19:53:27.129Z,7.80
2023-04-20T19:56:01.241Z,7.80
2023-04-20T19:58:29.898Z,7.80
2023-04-20T20:01:02.149Z,7.80
2023-04-20T20:03:31.158Z,7.80
2023-04-20T20:06:00.689Z,7.80
2023-04-20T20:08:32.219Z,7.80
2023-04-20T20:11:03.805Z,7.80
2023-04-20T20:13:32.579Z,7.80
2023-04-20T20:16:03.173Z,7.80
2023-04-20T20:18:32.389Z,7.90
2023-04-20T20:21:01.755Z,7.90
2023-04-20T20:23:30.912Z,7.90
2023-04-20T20:26:05.159Z,7.90
2023-04-20T20:28:35.066Z,7.90
2023-04-20T20:31:08.340Z,7.90
2023-04-20T20:33:39.778Z,8.00
2023-04-20T20:36:09.834Z,8.00
2023-04-20T20:38:42.238Z,8.00
2023-04-20T20:41:13.577Z,8.00
2023-04-20T20:43:42.847Z,8.00
2023-04-20T20:46:18.898Z,8.10
2023-04-20T20:48:48.030Z,8.10
2023-04-20T20:51:16.940Z,8.10
2023-04-20T20:53:46.275Z,8.20
2023-04-20T20:56:14.890Z,8.20
2023-04-20T20:58:46.859Z,8.20
2023-04-20T21:01:18.027Z,8.20
2023-04-20T21:03:53.878Z,8.20
2023-04-20T21:06:31.366Z,8.20
2023-04-20T21:09:01.020Z,8.20
2023-04-20T21:11:32.967Z,8.20
2023-04-20T21:14:03.646Z,8.20
2023-04-20T21:16:37.682Z,8.20
2023-04-20T21:19:10.592Z,8.20
2023-04-20T21:21:39.358Z,8.20
2023-04-20T21:24:12.631Z,8.20
2023-04-20T21:26:42.944Z,8.20
2023-04-20T21:29:13.329Z,8.20
2023-04-20T21:31:43.820Z,8.10
2023-04-20T21:34:17.139Z,8.00
2023-04-20T21:36:46.520Z,7.90
2023-04-20T21:39:17.271Z,7.80
2023-04-20T21:41:48.194Z,7.70
2023-04-20T21:44:17.313Z,7.70
2023-04-20T21:46:49.121Z,7.60
2023-04-20T21:49:20.287Z,7.50
2023-04-20T21:51:50.662Z,7.40
2023-04-20T21:54:21.726Z,7.40
2023-04-20T21:56:50.974Z,7.30
2023-04-20T21:59:21.106Z,7.20
2023-04-20T22:01:51.311Z,7.20
2023-04-20T22:04:20.927Z,7.10
2023-04-20T22:06:53.434Z,7.00
2023-04-20T22:09:28.502Z,7.00
2023-04-20T22:11:57.936Z,6.90
2023-04-20T22:14:26.557Z,6.90
2023-04-20T22:16:57.586Z,6.80
2023-04-20T22:19:30.073Z,6.70
2023-04-20T22:21:58.775Z,6.60
2023-04-20T22:24:27.934Z,6.60
2023-04-20T22:26:59.274Z,6.50
2023-04-20T22:29:32.390Z,6.50
2023-04-20T22:32:06.389Z,6.40
2023-04-20T22:34:35.660Z,6.30
2023-04-20T22:37:08.979Z,6.30
2023-04-20T22:39:40.308Z,6.20
2023-04-20T22:42:10.307Z,6.10
2023-04-20T22:44:40.301Z,6.00
2023-04-20T22:47:13.546Z,5.90
2023-04-20T22:49:45.234Z,5.90
2023-04-20T22:52:20.282Z,5.80
2023-04-20T22:54:51.181Z,5.80
2023-04-20T22:57:20.966Z,5.70
2023-04-20T22:59:53.196Z,5.70
2023-04-20T23:02:24.059Z,5.70
2023-04-20T23:04:54.928Z,5.70
2023-04-20T23:07:28.960Z,5.70
2023-04-20T23:09:59.721Z,5.70
2023-04-20T23:12:33.667Z,5.70
2023-04-20T23:15:04.009Z,5.60
2023-04-20T23:17:36.999Z,5.60
2023-04-20T23:20:10.647Z,5.60
2023-04-20T23:22:41.066Z,5.60
2023-04-20T23:25:14.398Z,5.60
2023-04-20T23:27:44.514Z,5.50
2023-04-20T23:30:14.847Z,5.50
2023-04-20T23:32:45.863Z,5.40
2023-04-20T23:35:18.952Z,5.40
2023-04-20T23:37:49.435Z,5.30
2023-04-20T23:40:18.087Z,5.30
2023-04-20T23:42:48.799Z,5.30
2023-04-20T23:45:19.068Z,5.30
2023-04-20T23:47:50.447Z,5.30
2023-04-20T23:50:19.995Z,5.20
2023-04-20T23:52:49.364Z,5.20
2023-04-20T23:55:19.843Z,5.20
2023-04-20T23:57:50.283Z,5.20
